EGDY - Yeovilton
Distance from station: E 5mi, 14km
Updated: 07/18/2018 9:50pm
Clear
Clear
 Wind from ESE
Wind: ESE 1 mph , 2 km/h
Temperature: 52°F , 11°C
Dew Point: 50°F , 10°C
Humidity: 94%
Barometer: 30.09 inHg , 1019 hPa
Summary: Clear
Visibility: greater than 7 miles , 10 km
2018/07/19 04:50 EGDY 190450Z 11001KT CAVOK 11/10 Q1019 BLU